createdAt,value
2018-03-24T05:00:36.280Z,3.07
2018-03-24T05:01:01.765Z,3.18
2018-03-24T05:01:27.216Z,3.05
2018-03-24T05:02:15.538Z,3.14
2018-03-24T05:02:40.950Z,3.13
2018-03-24T05:03:06.424Z,3.04
2018-03-24T05:03:31.903Z,3
2018-03-24T05:03:57.410Z,3.11
2018-03-24T05:04:23.023Z,3.07
2018-03-24T05:04:48.552Z,3.08
2018-03-24T05:05:14.072Z,3.04
2018-03-24T05:05:39.544Z,3.05
2018-03-24T05:06:05.045Z,3
2018-03-24T05:06:30.572Z,3.1
2018-03-24T05:06:56.071Z,3.04
2018-03-24T05:07:21.488Z,3.08
2018-03-24T05:07:46.960Z,3.01
2018-03-24T05:08:12.414Z,3.11
2018-03-24T05:08:37.911Z,3.07
2018-03-24T05:09:03.512Z,3.05
2018-03-24T05:09:28.823Z,3.08
2018-03-24T05:09:54.276Z,3.1
2018-03-24T05:10:19.724Z,3.05
2018-03-24T05:10:45.260Z,3.05
2018-03-24T05:11:10.687Z,3.07
2018-03-24T05:11:36.136Z,3.04
2018-03-24T05:12:01.603Z,3.04
2018-03-24T05:12:27.051Z,3.07
2018-03-24T05:12:52.537Z,3.07
2018-03-24T05:13:18.057Z,3.04
2018-03-24T05:13:43.477Z,3.1
2018-03-24T05:14:08.946Z,3.05
2018-03-24T05:14:34.434Z,3.08
2018-03-24T05:14:59.935Z,3.07
2018-03-24T05:15:25.447Z,3.05
2018-03-24T05:15:50.927Z,2.95
2018-03-24T05:16:16.392Z,2.93
2018-03-24T05:16:41.849Z,3.07
2018-03-24T05:17:07.338Z,3.05
2018-03-24T05:17:32.782Z,3.03
2018-03-24T05:17:58.267Z,3.05
2018-03-24T05:18:23.732Z,3.05
2018-03-24T05:18:49.216Z,3.05
2018-03-24T05:19:14.694Z,3.04
2018-03-24T05:19:40.210Z,3.08
2018-03-24T05:20:05.731Z,3.07
2018-03-24T05:20:31.268Z,3.05
2018-03-24T05:20:56.645Z,3.03
2018-03-24T05:21:22.138Z,3.05
2018-03-24T05:21:47.596Z,3.04
2018-03-24T05:22:13.040Z,3.05
2018-03-24T05:22:38.551Z,2.98
2018-03-24T05:23:04.013Z,3.04
2018-03-24T05:23:29.588Z,3
2018-03-24T05:23:55.016Z,3.03
2018-03-24T05:24:20.460Z,2.97
2018-03-24T05:24:45.980Z,3
2018-03-24T05:25:11.688Z,3
2018-03-24T05:25:36.957Z,3
2018-03-24T05:26:02.361Z,3
2018-03-24T05:26:27.843Z,3.03
2018-03-24T05:26:53.329Z,3
2018-03-24T05:27:18.725Z,3.03
2018-03-24T05:27:44.200Z,3.01
2018-03-24T05:28:09.660Z,3.05
2018-03-24T05:28:35.161Z,2.98
2018-03-24T05:29:33.688Z,3
2018-03-24T05:29:59.169Z,2.98
2018-03-24T05:30:24.723Z,3.03
2018-03-24T05:30:50.235Z,3
2018-03-24T05:31:15.756Z,3.05
2018-03-24T05:31:41.207Z,3.05
2018-03-24T05:32:06.715Z,3.03
2018-03-24T05:32:32.203Z,3.04
2018-03-24T05:32:57.636Z,3.01
2018-03-24T05:33:23.051Z,3.05
2018-03-24T05:33:48.587Z,3.05
2018-03-24T05:34:14.135Z,3.08
2018-03-24T05:34:39.513Z,3.05
2018-03-24T05:35:04.986Z,3.1
2018-03-24T05:35:30.449Z,3.07
2018-03-24T05:35:55.868Z,2.98
2018-03-24T05:36:21.313Z,3.1
2018-03-24T05:36:46.789Z,3.05
2018-03-24T05:37:12.289Z,3.03
2018-03-24T05:37:37.777Z,3.05
2018-03-24T05:38:03.230Z,3.1
2018-03-24T05:38:28.702Z,3.1
2018-03-24T05:38:54.249Z,3.07
2018-03-24T05:39:19.754Z,3.05
2018-03-24T05:39:45.163Z,3.08
2018-03-24T05:40:10.689Z,3.05
2018-03-24T05:40:36.178Z,3.07
2018-03-24T05:41:01.970Z,3.13
2018-03-24T05:41:27.412Z,3.11
2018-03-24T05:41:52.879Z,3.11
2018-03-24T05:42:18.395Z,3.08
2018-03-24T05:42:43.870Z,3.08
2018-03-24T05:43:09.366Z,3.08
2018-03-24T05:43:34.835Z,3.07
2018-03-24T05:44:00.379Z,3.07
2018-03-24T05:44:25.881Z,3.01
2018-03-24T05:44:51.592Z,3
2018-03-24T05:45:17.028Z,3.1
2018-03-24T05:45:42.539Z,3.08
2018-03-24T05:46:08.088Z,3.11
2018-03-24T05:46:33.481Z,3.1
2018-03-24T05:46:58.988Z,3.04
2018-03-24T05:47:24.444Z,3.08
2018-03-24T05:47:49.936Z,3.07
2018-03-24T05:48:15.420Z,3.08
2018-03-24T05:48:40.980Z,3.08
2018-03-24T05:49:06.387Z,3.07
2018-03-24T05:49:31.877Z,3.05
2018-03-24T05:50:20.212Z,3.08
2018-03-24T05:50:45.690Z,3.04
2018-03-24T05:51:11.182Z,3.07
2018-03-24T05:51:36.669Z,3.11
2018-03-24T05:52:02.156Z,3
2018-03-24T05:52:27.668Z,3.11
2018-03-24T05:52:53.145Z,2.98
2018-03-24T05:53:18.551Z,3.03
2018-03-24T05:53:44.042Z,3.03
2018-03-24T05:54:09.618Z,3.07
2018-03-24T05:54:35.145Z,3.14
2018-03-24T05:55:00.645Z,3.03
2018-03-24T05:55:26.127Z,3.04
2018-03-24T05:55:51.604Z,3.03
2018-03-24T05:56:17.108Z,3.16
2018-03-24T05:56:42.526Z,3.05
2018-03-24T05:57:08.057Z,3.04
2018-03-24T05:57:33.527Z,3.13
2018-03-24T05:57:58.952Z,3.14
2018-03-24T05:58:24.448Z,3.18
2018-03-24T05:58:49.947Z,3.11
2018-03-24T05:59:15.408Z,3.13
2018-03-24T05:59:40.901Z,3.13
2018-03-24T06:00:06.460Z,3.16
2018-03-24T06:00:31.999Z,3.16
2018-03-24T06:00:57.565Z,3.18
2018-03-24T06:01:22.999Z,3.05
2018-03-24T06:01:48.454Z,3.16
2018-03-24T06:02:13.870Z,3.05
2018-03-24T06:03:02.198Z,3.08
2018-03-24T06:03:27.717Z,3.14
2018-03-24T06:03:53.153Z,3.16
2018-03-24T06:04:18.677Z,3.16
2018-03-24T06:04:44.161Z,3.08
2018-03-24T06:05:09.626Z,3.22
2018-03-24T06:05:35.132Z,3.07
2018-03-24T06:06:00.697Z,3.23
2018-03-24T06:06:26.219Z,3.18
2018-03-24T06:06:51.693Z,3.14
2018-03-24T06:07:17.202Z,3.26
2018-03-24T06:07:42.661Z,3.19
2018-03-24T06:08:08.139Z,3.19
2018-03-24T06:08:33.647Z,3.22
2018-03-24T06:08:59.137Z,3.14
2018-03-24T06:09:24.641Z,3.26
2018-03-24T06:09:50.188Z,3.22
2018-03-24T06:10:15.655Z,3.16
2018-03-24T06:10:41.137Z,3.16
2018-03-24T06:11:06.664Z,3.23
2018-03-24T06:11:32.165Z,3.23
2018-03-24T06:12:35.820Z,3.14
2018-03-24T06:13:01.313Z,3.13
2018-03-24T06:13:26.791Z,3.13
2018-03-24T06:13:52.298Z,3.19
2018-03-24T06:14:17.812Z,3.25
2018-03-24T06:14:43.269Z,3.18
2018-03-24T06:15:08.753Z,3.1
2018-03-24T06:15:34.237Z,3.25
2018-03-24T06:15:59.688Z,3.16
2018-03-24T06:16:25.147Z,3.28
2018-03-24T06:16:50.640Z,3.31
2018-03-24T06:17:16.152Z,3.23
2018-03-24T06:17:41.632Z,3.18
2018-03-24T06:18:07.126Z,3.29
2018-03-24T06:18:32.587Z,3.26
2018-03-24T06:18:58.117Z,3.29
2018-03-24T06:19:23.554Z,3.26
2018-03-24T06:19:49.056Z,3.31
2018-03-24T06:20:14.609Z,3.26
2018-03-24T06:20:40.019Z,3.26
2018-03-24T06:21:05.519Z,3.23
2018-03-24T06:21:31.033Z,3.4
2018-03-24T06:21:56.525Z,3.41
2018-03-24T06:22:22.018Z,3.37
2018-03-24T06:22:47.523Z,3.37
2018-03-24T06:23:13.009Z,3.47
2018-03-24T06:23:38.459Z,3.45
2018-03-24T06:24:03.910Z,3.36
2018-03-24T06:24:29.400Z,3.37
2018-03-24T06:24:54.886Z,3.51
2018-03-24T06:25:20.346Z,3.5
2018-03-24T06:25:45.802Z,3.37
2018-03-24T06:26:11.299Z,3.5
2018-03-24T06:26:36.750Z,3.55
2018-03-24T06:27:31.191Z,3.58
2018-03-24T06:27:56.672Z,3.5
2018-03-24T06:28:22.177Z,3.6
2018-03-24T06:28:47.639Z,3.6
2018-03-24T06:29:13.123Z,3.58
2018-03-24T06:29:38.616Z,3.63
2018-03-24T06:30:04.160Z,3.66
2018-03-24T06:30:29.675Z,3.74
2018-03-24T06:31:33.276Z,3.7
2018-03-24T06:31:58.773Z,3.78
2018-03-24T06:32:24.263Z,3.8
2018-03-24T06:32:49.757Z,3.88
2018-03-24T06:33:53.378Z,3.84
2018-03-24T06:34:18.848Z,3.88
2018-03-24T06:34:44.341Z,3.94
2018-03-24T06:35:09.841Z,4.02
2018-03-24T06:35:35.326Z,3.98
2018-03-24T06:36:00.895Z,4.04
2018-03-24T06:36:26.389Z,4.05
2018-03-24T06:36:51.893Z,4.05
2018-03-24T06:37:17.348Z,4.05
2018-03-24T06:37:42.851Z,4.16
2018-03-24T06:38:08.386Z,4.1
2018-03-24T06:38:33.892Z,4.19
2018-03-24T06:38:59.350Z,4.2
2018-03-24T06:39:24.828Z,4.22
2018-03-24T06:39:50.328Z,4.26
2018-03-24T06:40:15.772Z,4.35
2018-03-24T06:40:41.254Z,4.34
2018-03-24T06:41:06.798Z,4.41
2018-03-24T06:41:32.279Z,4.41
2018-03-24T06:41:57.794Z,4.37
2018-03-24T06:42:23.334Z,4.42
2018-03-24T06:42:48.790Z,4.5
2018-03-24T06:43:14.284Z,4.49
2018-03-24T06:43:39.771Z,4.56
2018-03-24T06:44:05.304Z,4.68
2018-03-24T06:44:30.836Z,4.71
2018-03-24T06:44:56.375Z,4.8
2018-03-24T06:45:21.805Z,4.74
2018-03-24T06:45:47.344Z,4.94
2018-03-24T06:46:12.881Z,4.86
2018-03-24T06:46:38.510Z,4.92
2018-03-24T06:47:03.996Z,4.86
2018-03-24T06:47:29.503Z,4.9
2018-03-24T06:47:55.030Z,4.92
2018-03-24T06:48:20.522Z,5.02
2018-03-24T06:48:46.000Z,5.02
2018-03-24T06:49:11.524Z,4.99
2018-03-24T06:49:37.030Z,5.11
2018-03-24T06:50:02.503Z,5.12
2018-03-24T06:50:27.950Z,5.2
2018-03-24T06:50:53.448Z,5.15
2018-03-24T06:51:18.953Z,5.25
2018-03-24T06:51:44.439Z,5.21
2018-03-24T06:52:09.910Z,5.25
2018-03-24T06:52:35.440Z,5.25
2018-03-24T06:53:00.861Z,5.29
2018-03-24T06:53:26.338Z,5.36
2018-03-24T06:53:51.853Z,5.36
2018-03-24T06:54:17.487Z,5.32
2018-03-24T06:54:42.881Z,5.29
2018-03-24T06:55:08.361Z,5.28
2018-03-24T06:55:33.833Z,5.29
2018-03-24T06:55:59.364Z,5.29
2018-03-24T06:56:57.937Z,5.33
2018-03-24T06:57:23.446Z,5.35
2018-03-24T06:57:49.067Z,5.29
2018-03-24T06:58:14.489Z,5.35
2018-03-24T06:58:39.959Z,5.28
2018-03-24T06:59:05.477Z,5.3
2018-03-24T06:59:30.960Z,5.3
2018-03-24T07:00:29.654Z,5.25
2018-03-24T07:00:55.138Z,5.26
2018-03-24T07:01:20.603Z,5.25
2018-03-24T07:01:46.083Z,5.26
2018-03-24T07:02:11.552Z,5.25
2018-03-24T07:02:37.092Z,5.28
2018-03-24T07:03:02.717Z,5.26
2018-03-24T07:03:28.208Z,5.3
2018-03-24T07:03:53.709Z,5.25
2018-03-24T07:04:19.198Z,5.26
2018-03-24T07:04:44.797Z,5.36
2018-03-24T07:05:10.354Z,5.3
2018-03-24T07:05:35.815Z,5.32
2018-03-24T07:06:01.327Z,5.26
2018-03-24T07:06:26.861Z,5.33
2018-03-24T07:06:52.310Z,5.32
2018-03-24T07:07:17.853Z,5.32
2018-03-24T07:07:43.381Z,5.41
2018-03-24T07:08:08.817Z,5.38
2018-03-24T07:08:34.312Z,5.38
2018-03-24T07:08:59.793Z,5.43
2018-03-24T07:09:25.271Z,5.43
2018-03-24T07:09:50.720Z,5.38
2018-03-24T07:10:16.204Z,5.41
2018-03-24T07:10:41.706Z,5.5
2018-03-24T07:11:07.156Z,5.47
2018-03-24T07:11:32.662Z,5.47
2018-03-24T07:11:58.188Z,5.48
2018-03-24T07:13:01.789Z,5.47
2018-03-24T07:13:27.282Z,5.48
2018-03-24T07:13:52.762Z,5.48
2018-03-24T07:14:18.335Z,5.59
2018-03-24T07:14:43.771Z,5.54
2018-03-24T07:15:09.262Z,5.53
2018-03-24T07:15:34.768Z,5.57
2018-03-24T07:16:00.290Z,5.54
2018-03-24T07:16:25.892Z,5.62
2018-03-24T07:16:51.376Z,5.68
2018-03-24T07:17:16.823Z,5.66
2018-03-24T07:17:42.395Z,5.69
2018-03-24T07:18:07.778Z,5.64
2018-03-24T07:18:33.268Z,5.69
2018-03-24T07:18:58.764Z,5.68
2018-03-24T07:19:24.420Z,5.66
2018-03-24T07:19:49.813Z,5.8
2018-03-24T07:20:15.347Z,5.69
2018-03-24T07:20:40.890Z,5.8
2018-03-24T07:21:06.441Z,5.8
2018-03-24T07:21:31.887Z,5.73
2018-03-24T07:21:57.371Z,5.79
2018-03-24T07:22:22.843Z,5.75
2018-03-24T07:22:48.295Z,5.73
2018-03-24T07:23:13.757Z,5.8
2018-03-24T07:23:39.226Z,5.83
2018-03-24T07:24:04.693Z,5.8
2018-03-24T07:24:30.184Z,5.79
2018-03-24T07:24:55.847Z,5.79
2018-03-24T07:25:21.342Z,5.8
2018-03-24T07:25:46.762Z,5.87
2018-03-24T07:26:12.243Z,5.83
2018-03-24T07:26:37.766Z,5.89
2018-03-24T07:27:03.248Z,5.93
2018-03-24T07:27:28.712Z,6.04
2018-03-24T07:27:54.234Z,6.02
2018-03-24T07:28:19.732Z,5.94
2018-03-24T07:28:45.195Z,6.02
2018-03-24T07:29:10.632Z,6.02
2018-03-24T07:29:36.142Z,6.07
2018-03-24T07:30:01.659Z,6.07
2018-03-24T07:30:27.111Z,6.05
2018-03-24T07:30:52.614Z,6.08
2018-03-24T07:31:18.154Z,6.11
2018-03-24T07:31:43.595Z,6.16
2018-03-24T07:32:09.008Z,6.22
2018-03-24T07:32:34.502Z,6.2
2018-03-24T07:32:59.945Z,6.26
2018-03-24T07:33:25.439Z,6.27
2018-03-24T07:33:51.109Z,6.31
2018-03-24T07:34:16.608Z,6.26
2018-03-24T07:34:42.031Z,6.39
2018-03-24T07:35:07.520Z,6.31
2018-03-24T07:35:33.027Z,6.42
2018-03-24T07:35:58.475Z,6.42
2018-03-24T07:36:23.946Z,6.41
2018-03-24T07:36:49.453Z,6.42
2018-03-24T07:37:14.891Z,6.49
2018-03-24T07:37:40.365Z,6.54
2018-03-24T07:38:05.805Z,6.49
2018-03-24T07:38:31.255Z,6.6
2018-03-24T07:38:56.740Z,6.46
2018-03-24T07:39:22.191Z,6.59
2018-03-24T07:39:47.766Z,6.48
2018-03-24T07:40:13.257Z,6.62
2018-03-24T07:40:38.773Z,6.54
2018-03-24T07:41:04.272Z,6.59
2018-03-24T07:41:29.813Z,6.6
2018-03-24T07:41:55.239Z,6.6
2018-03-24T07:42:20.719Z,6.49
2018-03-24T07:42:46.298Z,6.49
2018-03-24T07:43:11.622Z,6.49
2018-03-24T07:43:37.109Z,6.62
2018-03-24T07:44:02.551Z,6.62
2018-03-24T07:44:28.027Z,6.63
2018-03-24T07:44:53.584Z,6.69
2018-03-24T07:45:18.995Z,6.75
2018-03-24T07:45:44.450Z,6.79
2018-03-24T07:46:09.904Z,6.79
2018-03-24T07:46:35.354Z,6.82
2018-03-24T07:47:00.836Z,6.88
2018-03-24T07:47:26.354Z,6.96
2018-03-24T07:47:51.810Z,6.92
2018-03-24T07:48:17.295Z,6.97
2018-03-24T07:48:42.882Z,7.02
2018-03-24T07:49:08.384Z,7.06
2018-03-24T07:49:33.901Z,7.06
2018-03-24T07:49:59.439Z,7.13
2018-03-24T07:50:24.867Z,7.14
2018-03-24T07:50:50.372Z,7.06
2018-03-24T07:51:15.884Z,7.07
2018-03-24T07:51:41.275Z,7.14
2018-03-24T07:52:06.844Z,7.1
2018-03-24T07:52:32.244Z,7.13
2018-03-24T07:52:57.678Z,7.11
2018-03-24T07:53:23.209Z,7.14
2018-03-24T07:53:48.819Z,7.1
2018-03-24T07:54:14.167Z,7.15
2018-03-24T07:54:39.741Z,7.14
2018-03-24T07:55:05.239Z,7.14
2018-03-24T07:55:30.647Z,7.14
2018-03-24T07:55:56.024Z,7.17
2018-03-24T07:56:21.476Z,7.15
2018-03-24T08:45:18.698Z,8.13
2018-03-24T08:45:44.263Z,8.18
2018-03-24T08:46:09.699Z,8.24
2018-03-24T08:46:35.165Z,8.19
2018-03-24T08:47:00.663Z,8.3
2018-03-24T08:47:26.235Z,8.19
2018-03-24T08:47:51.678Z,8.2
2018-03-24T08:48:17.178Z,8.33
2018-03-24T08:48:42.698Z,8.3
2018-03-24T08:49:08.180Z,8.24
2018-03-24T08:49:33.694Z,8.28
2018-03-24T08:49:59.150Z,8.3
2018-03-24T08:50:24.660Z,8.28
2018-03-24T08:50:50.146Z,8.28
2018-03-24T08:51:15.667Z,8.3
2018-03-24T08:51:41.184Z,8.31
2018-03-24T08:52:06.680Z,8.19
2018-03-24T08:52:32.182Z,8.33
2018-03-24T08:52:57.664Z,8.34
2018-03-24T08:53:23.128Z,8.34
2018-03-24T08:53:48.587Z,8.36
2018-03-24T08:54:14.059Z,8.34
2018-03-24T08:54:39.549Z,8.33
2018-03-24T08:55:28.934Z,8.44
2018-03-24T08:55:54.371Z,8.51
2018-03-24T08:56:19.842Z,8.53
2018-03-24T08:56:45.311Z,8.46
2018-03-24T08:57:10.961Z,8.53
2018-03-24T08:57:36.369Z,8.53
2018-03-24T08:58:01.918Z,8.55
2018-03-24T08:58:27.447Z,8.58
2018-03-24T08:58:52.923Z,8.56
2018-03-24T08:59:18.447Z,8.63
2018-03-24T08:59:43.958Z,8.67
2018-03-24T09:00:09.448Z,8.74
2018-03-24T09:00:34.924Z,8.73
2018-03-24T09:01:00.569Z,8.69
2018-03-24T09:01:26.074Z,8.73
2018-03-24T09:01:51.610Z,8.81
2018-03-24T09:02:17.092Z,8.81
2018-03-24T09:02:42.542Z,8.7
2018-03-24T09:03:08.084Z,8.78
2018-03-24T09:03:33.533Z,8.79
2018-03-24T09:03:59.013Z,8.79
2018-03-24T09:04:24.511Z,8.71
2018-03-24T09:04:49.949Z,8.76
2018-03-24T09:05:15.522Z,8.79
2018-03-24T09:05:41.137Z,8.82
2018-03-24T09:06:06.623Z,8.76
2018-03-24T09:06:32.113Z,8.82
2018-03-24T09:06:57.552Z,8.88
2018-03-24T09:07:23.145Z,8.82
2018-03-24T09:08:32.010Z,8.95
2018-03-24T09:08:57.566Z,8.92
2018-03-24T09:09:23.033Z,8.89
2018-03-24T09:09:48.503Z,8.91
2018-03-24T09:10:14.002Z,8.99
2018-03-24T09:10:39.522Z,9.02
2018-03-24T09:11:05.014Z,8.97
2018-03-24T09:11:30.475Z,8.97
2018-03-24T09:11:55.968Z,9.08
2018-03-24T09:12:21.458Z,9.03
2018-03-24T09:12:46.964Z,9.06
2018-03-24T09:13:12.444Z,9.11
2018-03-24T09:13:37.998Z,9.11
2018-03-24T09:14:03.506Z,9.13
2018-03-24T09:14:29.030Z,9.16
2018-03-24T09:14:54.477Z,9.22
2018-03-24T09:15:20.022Z,9.19
2018-03-24T09:15:45.571Z,9.19
2018-03-24T09:16:10.955Z,9.22
2018-03-24T09:16:36.402Z,9.23
2018-03-24T09:17:02.024Z,9.25
2018-03-24T09:17:27.562Z,9.29
2018-03-24T09:17:53.100Z,9.28
2018-03-24T09:18:18.611Z,9.29
2018-03-24T09:19:18.130Z,9.37
2018-03-24T09:19:43.628Z,9.37
2018-03-24T09:20:09.106Z,9.39
2018-03-24T09:20:34.594Z,9.47
2018-03-24T09:21:00.071Z,9.46
2018-03-24T09:21:25.594Z,9.4
2018-03-24T09:21:51.069Z,9.51
2018-03-24T09:22:16.655Z,9.5
2018-03-24T09:22:42.072Z,9.51
2018-03-24T09:23:07.564Z,9.55
2018-03-24T09:23:33.080Z,9.51
2018-03-24T09:23:58.575Z,9.61
2018-03-24T09:24:24.107Z,9.58
2018-03-24T09:24:49.580Z,9.61
2018-03-24T09:25:15.059Z,9.69
2018-03-24T09:25:40.569Z,9.68
2018-03-24T09:26:06.092Z,9.65
2018-03-24T09:26:31.539Z,9.62
2018-03-24T09:26:57.060Z,9.68
2018-03-24T09:27:22.505Z,9.68
2018-03-24T09:27:47.979Z,9.68
2018-03-24T09:28:13.501Z,9.73
2018-03-24T09:28:38.953Z,9.69
2018-03-24T09:29:04.429Z,9.68
2018-03-24T09:29:29.933Z,9.69
2018-03-24T09:29:55.425Z,9.62
2018-03-24T09:30:21.000Z,9.76
2018-03-24T09:30:46.473Z,9.8
2018-03-24T09:31:34.809Z,9.69
2018-03-24T09:32:00.291Z,9.77
2018-03-24T09:32:25.753Z,9.77
2018-03-24T09:32:51.258Z,9.77
2018-03-24T09:33:16.729Z,9.77
2018-03-24T09:33:42.279Z,9.77
2018-03-24T09:34:07.762Z,9.74
2018-03-24T09:34:33.238Z,9.77
2018-03-24T09:34:58.753Z,9.8
2018-03-24T09:35:24.187Z,9.74
2018-03-24T09:35:49.673Z,9.79
2018-03-24T09:36:48.200Z,9.74
2018-03-24T09:37:13.701Z,9.77
2018-03-24T09:37:39.214Z,9.68
2018-03-24T09:38:04.662Z,9.79
2018-03-24T09:38:30.226Z,9.68
2018-03-24T09:39:28.727Z,9.92
2018-03-24T09:39:54.224Z,9.97
2018-03-24T09:40:19.675Z,9.92
2018-03-24T09:40:45.154Z,9.95
2018-03-24T09:41:10.656Z,9.97
2018-03-24T09:41:36.167Z,9.89
2018-03-24T09:42:01.672Z,9.97
2018-03-24T09:42:27.155Z,9.91
2018-03-24T09:42:52.636Z,9.95
2018-03-24T09:43:18.138Z,9.97
2018-03-24T09:43:43.647Z,9.98
2018-03-24T09:44:09.155Z,9.99
2018-03-24T09:44:34.715Z,10.04
2018-03-24T09:45:00.133Z,10.01
2018-03-24T09:45:25.637Z,9.97
2018-03-24T09:45:51.128Z,10.01
2018-03-24T09:46:16.585Z,9.99
2018-03-24T09:46:42.064Z,9.99
2018-03-24T09:47:07.544Z,9.95
2018-03-24T09:47:33.087Z,9.98
2018-03-24T09:47:58.566Z,9.98
2018-03-24T09:48:24.097Z,9.99
2018-03-24T09:48:49.588Z,9.97
2018-03-24T09:49:15.074Z,9.97
2018-03-24T09:49:40.582Z,9.97
2018-03-24T09:50:06.075Z,10.09
2018-03-24T09:50:31.564Z,10.09
2018-03-24T09:50:57.060Z,10.1
2018-03-24T09:51:22.563Z,10.09
2018-03-24T09:51:48.067Z,10.01
2018-03-24T09:52:13.546Z,10.02
2018-03-24T09:52:39.106Z,9.99
2018-03-24T09:53:04.693Z,10.07
2018-03-24T09:53:30.214Z,10.1
2018-03-24T09:53:55.703Z,10.05
2018-03-24T09:54:21.333Z,10.07
2018-03-24T09:54:46.747Z,10.12
2018-03-24T09:55:12.227Z,10.13
2018-03-24T09:55:37.717Z,10.09
2018-03-24T09:56:03.217Z,10.15
2018-03-24T09:56:28.728Z,10.15
2018-03-24T09:56:54.245Z,10.05
2018-03-24T09:57:19.729Z,10.1
2018-03-24T09:57:45.228Z,10.12
2018-03-24T09:58:10.773Z,10.13
2018-03-24T09:58:36.228Z,10.12
2018-03-24T09:59:01.717Z,10.09
2018-03-24T09:59:27.215Z,10.02
2018-03-24T09:59:52.702Z,10.15
2018-03-24T10:00:18.216Z,10.1
2018-03-24T10:00:43.721Z,10.12
2018-03-24T10:01:09.244Z,10.2
2018-03-24T10:01:34.746Z,10.23
2018-03-24T10:02:00.249Z,10.13
2018-03-24T10:02:25.755Z,10.19
2018-03-24T10:02:51.230Z,10.25
2018-03-24T10:03:16.718Z,10.3
2018-03-24T10:03:42.202Z,10.25
2018-03-24T10:04:07.741Z,10.31
2018-03-24T10:04:33.232Z,10.3
2018-03-24T10:04:58.728Z,10.3
2018-03-24T10:05:24.239Z,10.28
2018-03-24T10:05:49.724Z,10.23
2018-03-24T10:06:15.248Z,10.38
2018-03-24T10:06:40.695Z,10.37
2018-03-24T10:07:06.210Z,10.31
2018-03-24T10:07:31.776Z,10.34
2018-03-24T10:07:57.368Z,10.42
2018-03-24T10:08:22.961Z,10.33
2018-03-24T10:08:49.089Z,10.4
2018-03-24T10:09:14.790Z,10.35
2018-03-24T10:09:41.112Z,10.49
2018-03-24T10:10:06.669Z,10.37
2018-03-24T10:10:32.161Z,10.49
2018-03-24T10:10:57.679Z,10.49
2018-03-24T10:11:23.171Z,10.51
2018-03-24T10:11:48.648Z,10.41
2018-03-24T10:12:14.162Z,10.44
2018-03-24T10:12:39.616Z,10.59
2018-03-24T10:13:05.138Z,10.46
2018-03-24T10:13:30.614Z,10.53
2018-03-24T10:13:56.138Z,10.53
2018-03-24T10:14:21.611Z,10.49
2018-03-24T10:14:47.065Z,10.49
2018-03-24T10:15:12.553Z,10.51
2018-03-24T10:16:06.477Z,10.54
2018-03-24T10:16:31.972Z,10.54
2018-03-24T10:16:57.459Z,10.53
2018-03-24T10:17:22.960Z,10.49
2018-03-24T10:17:48.425Z,10.46
2018-03-24T10:18:13.927Z,10.6
2018-03-24T10:18:39.408Z,10.56
2018-03-24T10:19:04.883Z,10.56
2018-03-24T10:19:30.377Z,10.54
2018-03-24T10:19:55.870Z,10.56
2018-03-24T10:20:21.370Z,10.48
2018-03-24T10:20:46.870Z,10.49
2018-03-24T10:21:12.324Z,10.56
2018-03-24T10:21:37.833Z,10.49
2018-03-24T10:22:03.310Z,10.46
2018-03-24T10:22:28.828Z,10.48
2018-03-24T10:22:54.274Z,10.6
2018-03-24T10:23:19.736Z,10.56
2018-03-24T10:23:45.239Z,10.54
2018-03-24T10:24:10.692Z,10.56
2018-03-24T10:24:36.153Z,10.46
2018-03-24T10:25:01.629Z,10.46
2018-03-24T10:25:27.110Z,10.54
2018-03-24T10:25:52.687Z,10.48
2018-03-24T10:26:18.201Z,10.48
2018-03-24T10:26:43.660Z,10.44
2018-03-24T10:27:09.149Z,10.44
2018-03-24T10:27:34.606Z,10.46
2018-03-24T10:28:00.204Z,10.49
2018-03-24T10:28:25.568Z,10.46
2018-03-24T10:28:51.078Z,10.48
2018-03-24T10:29:16.662Z,10.48
2018-03-24T10:29:42.085Z,10.56
2018-03-24T10:30:07.633Z,10.56
2018-03-24T10:30:33.109Z,10.4
2018-03-24T10:30:58.648Z,10.48
2018-03-24T10:31:24.152Z,10.48
2018-03-24T10:31:49.684Z,10.46
2018-03-24T10:32:15.226Z,10.46
2018-03-24T10:32:40.723Z,10.42
2018-03-24T10:33:06.229Z,10.51
2018-03-24T10:33:31.688Z,10.59
2018-03-24T10:33:57.317Z,10.46
2018-03-24T10:34:22.783Z,10.46
2018-03-24T10:34:48.209Z,10.57
2018-03-24T10:35:13.781Z,10.59
2018-03-24T10:35:39.286Z,10.64
2018-03-24T10:36:04.828Z,10.56
2018-03-24T10:36:30.285Z,10.61
2018-03-24T10:36:55.782Z,10.6
2018-03-24T10:37:21.294Z,10.67
2018-03-24T10:37:46.834Z,10.64
2018-03-24T10:38:12.277Z,10.68
2018-03-24T10:38:37.903Z,10.61
2018-03-24T10:39:03.405Z,10.67
2018-03-24T10:39:28.919Z,10.67
2018-03-24T10:39:54.396Z,10.63
2018-03-24T10:40:19.937Z,10.61
2018-03-24T10:40:45.415Z,10.72
2018-03-24T10:41:10.930Z,10.64
2018-03-24T10:41:36.596Z,10.74
2018-03-24T10:42:02.109Z,10.79
2018-03-24T10:42:27.576Z,10.76
2018-03-24T10:42:53.129Z,10.84
2018-03-24T10:43:18.602Z,10.74
2018-03-24T10:43:44.063Z,10.76
2018-03-24T10:44:09.534Z,10.82
2018-03-24T10:44:35.064Z,10.81
2018-03-24T10:45:00.535Z,10.89
2018-03-24T10:45:26.041Z,10.78
2018-03-24T10:45:51.614Z,10.76
2018-03-24T10:46:17.124Z,10.75
2018-03-24T10:46:42.620Z,10.75
2018-03-24T10:47:08.198Z,10.74
2018-03-24T10:47:33.663Z,10.74
2018-03-24T10:47:59.208Z,10.72
2018-03-24T10:49:02.850Z,10.84
2018-03-24T10:49:28.369Z,10.84
2018-03-24T10:49:53.861Z,10.82
2018-03-24T10:50:19.421Z,10.82
2018-03-24T10:50:44.915Z,10.78
2018-03-24T10:51:10.455Z,10.82
2018-03-24T10:51:35.927Z,10.79
2018-03-24T10:52:01.446Z,10.84
2018-03-24T10:52:26.998Z,10.78
2018-03-24T10:52:52.409Z,10.87
2018-03-24T10:53:17.858Z,10.89
2018-03-24T10:53:43.393Z,10.84
2018-03-24T10:54:08.886Z,10.84
2018-03-24T10:54:34.399Z,10.76
2018-03-24T10:54:59.902Z,10.82
2018-03-24T10:55:25.415Z,10.82
2018-03-24T10:55:50.888Z,10.89
2018-03-24T10:56:16.388Z,10.72
2018-03-24T10:56:41.929Z,10.82
2018-03-24T10:57:07.402Z,10.82
2018-03-24T10:57:32.931Z,10.81
2018-03-24T10:57:58.459Z,10.86
2018-03-24T10:58:23.905Z,10.78
2018-03-24T10:58:49.419Z,10.84
2018-03-24T10:59:14.915Z,10.86
2018-03-24T10:59:40.420Z,10.82
2018-03-24T11:00:05.900Z,10.87
2018-03-24T11:00:31.367Z,10.78
2018-03-24T11:00:56.882Z,10.9
2018-03-24T11:01:22.495Z,10.93
2018-03-24T11:01:47.926Z,10.9
2018-03-24T11:02:13.378Z,10.97
2018-03-24T11:02:38.880Z,10.86
2018-03-24T11:03:04.372Z,10.94
2018-03-24T11:03:29.833Z,11
2018-03-24T11:03:55.333Z,10.96
2018-03-24T11:04:20.866Z,10.99
2018-03-24T11:04:46.418Z,10.99
2018-03-24T11:05:11.893Z,11.02
2018-03-24T11:05:37.385Z,11.05
2018-03-24T11:06:02.825Z,10.99
2018-03-24T11:06:28.292Z,11.04
2018-03-24T11:06:53.767Z,11.12
2018-03-24T11:07:19.312Z,11.07
2018-03-24T11:07:44.796Z,11.12
2018-03-24T11:08:10.327Z,11.1
2018-03-24T11:08:35.794Z,11.11
2018-03-24T11:09:01.302Z,11.15
2018-03-24T11:09:26.845Z,11.08
2018-03-24T11:09:52.361Z,11.1
2018-03-24T11:10:17.887Z,11.12
2018-03-24T11:10:43.395Z,11.11
2018-03-24T11:11:08.886Z,11.11
2018-03-24T11:11:34.367Z,11.05
2018-03-24T11:11:59.924Z,11.11
2018-03-24T11:12:25.500Z,11.14
2018-03-24T11:12:50.902Z,11.14
2018-03-24T11:13:16.428Z,11.02
2018-03-24T11:13:41.960Z,11
2018-03-24T11:14:07.472Z,11
2018-03-24T11:14:33.073Z,10.94
2018-03-24T11:14:58.453Z,10.99
2018-03-24T11:15:23.925Z,11.02
2018-03-24T11:15:49.407Z,11
2018-03-24T11:16:14.905Z,11.02
2018-03-24T11:16:40.396Z,11.1
2018-03-24T11:17:05.893Z,11.07
2018-03-24T11:17:31.368Z,11.07
2018-03-24T11:17:56.873Z,11.07
2018-03-24T11:18:22.370Z,11.11
2018-03-24T11:18:47.879Z,11.08
2018-03-24T11:19:13.334Z,11.17
2018-03-24T11:19:38.867Z,11.12
2018-03-24T11:20:04.332Z,11.04
2018-03-24T11:20:29.801Z,11.17
2018-03-24T11:20:55.310Z,11.11
2018-03-24T11:21:20.829Z,11.25
2018-03-24T11:21:46.296Z,11.22
2018-03-24T11:22:11.820Z,11.17
2018-03-24T11:22:37.319Z,11.26
2018-03-24T11:23:02.820Z,11.32
2018-03-24T11:23:28.312Z,11.3
2018-03-24T11:23:53.818Z,11.4
2018-03-24T11:24:19.300Z,11.32
2018-03-24T11:24:44.790Z,11.32
2018-03-24T11:25:10.289Z,11.43
2018-03-24T11:25:35.784Z,11.47
2018-03-24T11:26:01.293Z,11.45
2018-03-24T11:26:26.893Z,11.54
2018-03-24T11:26:52.364Z,11.54
2018-03-24T11:27:17.894Z,11.68
2018-03-24T11:27:43.398Z,11.62
2018-03-24T11:28:08.922Z,11.52
2018-03-24T11:28:34.402Z,11.68
2018-03-24T11:28:59.953Z,11.6
2018-03-24T11:29:25.461Z,11.7
2018-03-24T11:29:50.966Z,11.77
2018-03-24T11:30:16.439Z,11.75
2018-03-24T11:30:42.021Z,11.75
2018-03-24T11:31:07.487Z,11.81
2018-03-24T11:31:32.973Z,11.83
2018-03-24T11:31:58.448Z,11.84
2018-03-24T11:32:23.984Z,11.88
2018-03-24T11:32:49.473Z,11.97
2018-03-24T11:33:14.947Z,11.99
2018-03-24T11:33:40.449Z,11.95
2018-03-24T11:34:05.957Z,12.07
2018-03-24T11:34:31.432Z,12.04
2018-03-24T11:34:57.003Z,12.07
2018-03-24T11:35:22.561Z,12.17
2018-03-24T11:35:48.215Z,12.2
2018-03-24T11:36:13.763Z,12.12
2018-03-24T11:36:39.249Z,12.15